sensor_id;sensor_type;location;lat;lon;timestamp;temperature;humidity
8043;DHT22;4064;48.132;11.366;2024-01-15T00:01:17;-0.40;99.90
8043;DHT22;4064;48.132;11.366;2024-01-15T00:03:42;-0.30;99.90
8043;DHT22;4064;48.132;11.366;2024-01-15T00:06:08;-0.30;99.90
8043;DHT22;4064;48.132;11.366;2024-01-15T00:08:34;-0.30;99.90
8043;DHT22;4064;48.132;11.366;2024-01-15T00:10:59;-0.30;99.90
8043;DHT22;4064;48.132;11.366;2024-01-15T00:13:25;-0.40;99.90
8043;DHT22;4064;48.132;11.366;2024-01-15T00:15:50;-0.40;99.90
8043;DHT22;4064;48.132;11.366;2024-01-15T00:18:16;-0.50;99.90
8043;DHT22;4064;48.132;11.366;2024-01-15T00:20:42;-0.50;99.90
8043;DHT22;4064;48.132;11.366;2024-01-15T00:23:07;-0.60;99.90
8043;DHT22;4064;48.132;11.366;2024-01-15T00:25:33;-0.60;99.90
8043;DHT22;4064;48.132;11.366;2024-01-15T00:27:58;-0.60;99.90
8043;DHT22;4064;48.132;11.366;2024-01-15T00:30:24;-0.60;99.90
8043;DHT22;4064;48.132;11.366;2024-01-15T00:32:50;-0.60;99.90
8043;DHT22;4064;48.132;11.366;2024-01-15T00:35:15;-0.60;99.90
8043;DHT22;4064;48.132;11.366;2024-01-15T00:37:41;-0.60;99.90
8043;DHT22;4064;48.132;11.366;2024-01-15T00:40:07;-0.50;99.90
8043;DHT22;4064;48.132;11.366;2024-01-15T00:47:44;-0.60;99.90
8043;DHT22;4064;48.132;11.366;2024-01-15T00:50:09;-0.60;99.90
8043;DHT22;4064;48.132;11.366;2024-01-15T00:52:35;-0.60;99.90
8043;DHT22;4064;48.132;11.366;2024-01-15T00:55:01;-0.60;99.90
8043;DHT22;4064;48.132;11.366;2024-01-15T00:57:26;-0.70;99.90
8043;DHT22;4064;48.132;11.366;2024-01-15T00:59:52;-0.70;99.90
8043;DHT22;4064;48.132;11.366;2024-01-15T01:02:18;-0.70;99.90
8043;DHT22;4064;48.132;11.366;2024-01-15T01:04:44;-0.70;99.90
8043;DHT22;4064;48.132;11.366;2024-01-15T01:07:09;-0.80;99.90
8043;DHT22;4064;48.132;11.366;2024-01-15T01:09:35;-0.90;99.90
8043;DHT22;4064;48.132;11.366;2024-01-15T01:12:00;-0.90;99.90
8043;DHT22;4064;48.132;11.366;2024-01-15T01:14:26;-1.00;99.90
8043;DHT22;4064;48.132;11.366;2024-01-15T01:16:52;-1.10;99.90
8043;DHT22;4064;48.132;11.366;2024-01-15T01:19:17;-1.20;99.90
8043;DHT22;4064;48.132;11.366;2024-01-15T01:21:43;-1.30;99.90
8043;DHT22;4064;48.132;11.366;2024-01-15T01:24:09;-1.50;99.90
8043;DHT22;4064;48.132;11.366;2024-01-15T01:26:34;-1.60;99.90
8043;DHT22;4064;48.132;11.366;2024-01-15T01:29:00;-1.70;99.90
8043;DHT22;4064;48.132;11.366;2024-01-15T01:31:26;-1.80;99.90
8043;DHT22;4064;48.132;11.366;2024-01-15T01:33:51;-1.80;99.90
8043;DHT22;4064;48.132;11.366;2024-01-15T01:36:17;-1.80;99.90
8043;DHT22;4064;48.132;11.366;2024-01-15T01:38:43;-1.90;99.90
8043;DHT22;4064;48.132;11.366;2024-01-15T01:41:08;-1.90;99.90
8043;DHT22;4064;48.132;11.366;2024-01-15T01:43:34;-1.90;99.90
8043;DHT22;4064;48.132;11.366;2024-01-15T01:46:00;-2.00;99.90
8043;DHT22;4064;48.132;11.366;2024-01-15T01:48:26;-2.00;99.90
8043;DHT22;4064;48.132;11.366;2024-01-15T01:50:58;-2.00;99.90
8043;DHT22;4064;48.132;11.366;2024-01-15T01:53:26;-2.00;99.90
8043;DHT22;4064;48.132;11.366;2024-01-15T01:55:53;-2.10;99.90
8043;DHT22;4064;48.132;11.366;2024-01-15T01:58:19;-2.10;99.90
8043;DHT22;4064;48.132;11.366;2024-01-15T02:00:46;-2.10;99.90
8043;DHT22;4064;48.132;11.366;2024-01-15T02:03:12;-2.10;99.90
8043;DHT22;4064;48.132;11.366;2024-01-15T02:05:39;-2.10;99.90
8043;DHT22;4064;48.132;11.366;2024-01-15T02:08:05;-2.10;99.90
8043;DHT22;4064;48.132;11.366;2024-01-15T02:10:31;-2.20;99.90
8043;DHT22;4064;48.132;11.366;2024-01-15T02:12:57;-2.20;99.90
8043;DHT22;4064;48.132;11.366;2024-01-15T02:15:23;-2.20;99.90
8043;DHT22;4064;48.132;11.366;2024-01-15T02:18:00;-2.20;99.90
8043;DHT22;4064;48.132;11.366;2024-01-15T02:20:26;-2.30;99.90
8043;DHT22;4064;48.132;11.366;2024-01-15T02:22:52;-2.30;99.90
8043;DHT22;4064;48.132;11.366;2024-01-15T02:25:18;-2.30;99.90
8043;DHT22;4064;48.132;11.366;2024-01-15T02:27:44;-2.30;99.90
8043;DHT22;4064;48.132;11.366;2024-01-15T02:30:13;-2.30;99.90
8043;DHT22;4064;48.132;11.366;2024-01-15T02:32:39;-2.40;99.90
8043;DHT22;4064;48.132;11.366;2024-01-15T02:35:05;-2.40;99.90
8043;DHT22;4064;48.132;11.366;2024-01-15T02:37:30;-2.40;99.90
8043;DHT22;4064;48.132;11.366;2024-01-15T02:39:56;-2.40;99.90
8043;DHT22;4064;48.132;11.366;2024-01-15T02:42:22;-2.30;99.90
8043;DHT22;4064;48.132;11.366;2024-01-15T02:44:49;-2.30;99.90
8043;DHT22;4064;48.132;11.366;2024-01-15T02:47:14;-2.30;99.90
8043;DHT22;4064;48.132;11.366;2024-01-15T02:49:40;-2.30;99.90
8043;DHT22;4064;48.132;11.366;2024-01-15T02:52:06;-2.20;99.90
8043;DHT22;4064;48.132;11.366;2024-01-15T02:54:32;-2.20;99.90
8043;DHT22;4064;48.132;11.366;2024-01-15T02:56:57;-2.20;99.90
8043;DHT22;4064;48.132;11.366;2024-01-15T02:59:23;-2.20;99.90
8043;DHT22;4064;48.132;11.366;2024-01-15T03:01:49;-2.20;99.90
8043;DHT22;4064;48.132;11.366;2024-01-15T03:04:14;-2.20;99.90
8043;DHT22;4064;48.132;11.366;2024-01-15T03:06:40;-2.10;99.90
8043;DHT22;4064;48.132;11.366;2024-01-15T03:09:06;-2.20;99.90
8043;DHT22;4064;48.132;11.366;2024-01-15T03:11:38;-2.20;99.90
8043;DHT22;4064;48.132;11.366;2024-01-15T03:14:04;-2.20;99.90
8043;DHT22;4064;48.132;11.366;2024-01-15T03:16:30;-2.10;99.90
8043;DHT22;4064;48.132;11.366;2024-01-15T03:18:56;-2.10;99.90
8043;DHT22;4064;48.132;11.366;2024-01-15T03:21:21;-2.10;99.90
8043;DHT22;4064;48.132;11.366;2024-01-15T03:23:47;-2.10;99.90
8043;DHT22;4064;48.132;11.366;2024-01-15T03:26:13;-2.20;99.90
8043;DHT22;4064;48.132;11.366;2024-01-15T03:28:38;-2.20;99.90
8043;DHT22;4064;48.132;11.366;2024-01-15T03:31:04;-2.30;99.90
8043;DHT22;4064;48.132;11.366;2024-01-15T03:33:30;-2.30;99.90
8043;DHT22;4064;48.132;11.366;2024-01-15T03:35:55;-2.20;99.90
8043;DHT22;4064;48.132;11.366;2024-01-15T03:38:22;-2.20;99.90
8043;DHT22;4064;48.132;11.366;2024-01-15T03:40:48;-2.20;99.90
8043;DHT22;4064;48.132;11.366;2024-01-15T03:43:13;-2.20;99.90
8043;DHT22;4064;48.132;11.366;2024-01-15T03:45:39;-2.20;99.90
8043;DHT22;4064;48.132;11.366;2024-01-15T03:48:05;-2.20;99.90
8043;DHT22;4064;48.132;11.366;2024-01-15T03:50:30;-2.20;99.90
8043;DHT22;4064;48.132;11.366;2024-01-15T03:52:56;-2.20;99.90
8043;DHT22;4064;48.132;11.366;2024-01-15T03:55:22;-2.20;99.90
8043;DHT22;4064;48.132;11.366;2024-01-15T03:57:47;-2.20;99.90
8043;DHT22;4064;48.132;11.366;2024-01-15T04:00:14;-2.20;99.90
8043;DHT22;4064;48.132;11.366;2024-01-15T04:02:43;-2.20;99.90
8043;DHT22;4064;48.132;11.366;2024-01-15T04:05:09;-2.10;99.90
8043;DHT22;4064;48.132;11.366;2024-01-15T04:07:35;-2.10;99.90
8043;DHT22;4064;48.132;11.366;2024-01-15T04:10:01;-2.10;99.90
8043;DHT22;4064;48.132;11.366;2024-01-15T04:12:27;-2.10;99.90
8043;DHT22;4064;48.132;11.366;2024-01-15T04:14:53;-2.10;99.90
8043;DHT22;4064;48.132;11.366;2024-01-15T04:17:19;-2.10;99.90
8043;DHT22;4064;48.132;11.366;2024-01-15T04:19:46;-2.10;99.90
8043;DHT22;4064;48.132;11.366;2024-01-15T04:22:13;-2.10;99.90
8043;DHT22;4064;48.132;11.366;2024-01-15T04:24:39;-2.10;99.90
8043;DHT22;4064;48.132;11.366;2024-01-15T04:27:06;-2.10;99.90
8043;DHT22;4064;48.132;11.366;2024-01-15T04:29:32;-2.10;99.90
8043;DHT22;4064;48.132;11.366;2024-01-15T04:31:57;-2.10;99.90
8043;DHT22;4064;48.132;11.366;2024-01-15T04:34:23;-2.10;99.90
8043;DHT22;4064;48.132;11.366;2024-01-15T04:36:49;-2.00;99.90
8043;DHT22;4064;48.132;11.366;2024-01-15T04:39:14;-2.00;99.90
8043;DHT22;4064;48.132;11.366;2024-01-15T04:41:40;-2.00;99.90
8043;DHT22;4064;48.132;11.366;2024-01-15T04:44:06;-2.00;99.90
8043;DHT22;4064;48.132;11.366;2024-01-15T04:46:31;-2.00;99.90
8043;DHT22;4064;48.132;11.366;2024-01-15T04:48:57;-2.00;99.90
8043;DHT22;4064;48.132;11.366;2024-01-15T04:51:23;-2.00;99.90
8043;DHT22;4064;48.132;11.366;2024-01-15T04:53:48;-2.00;99.90
8043;DHT22;4064;48.132;11.366;2024-01-15T04:56:14;-2.00;99.90
8043;DHT22;4064;48.132;11.366;2024-01-15T04:58:40;-2.00;99.90
8043;DHT22;4064;48.132;11.366;2024-01-15T05:01:05;-2.00;99.90
8043;DHT22;4064;48.132;11.366;2024-01-15T05:03:33;-2.00;99.90
8043;DHT22;4064;48.132;11.366;2024-01-15T05:05:58;-2.00;99.90
8043;DHT22;4064;48.132;11.366;2024-01-15T05:08:24;-1.90;99.90
8043;DHT22;4064;48.132;11.366;2024-01-15T05:10:50;-1.90;99.90
8043;DHT22;4064;48.132;11.366;2024-01-15T05:13:15;-1.90;99.90
8043;DHT22;4064;48.132;11.366;2024-01-15T05:15:41;-1.90;99.90
8043;DHT22;4064;48.132;11.366;2024-01-15T05:18:07;-2.00;99.90
8043;DHT22;4064;48.132;11.366;2024-01-15T05:20:32;-1.90;99.90
8043;DHT22;4064;48.132;11.366;2024-01-15T05:22:58;-2.00;99.90
8043;DHT22;4064;48.132;11.366;2024-01-15T05:25:23;-1.90;99.90
8043;DHT22;4064;48.132;11.366;2024-01-15T05:27:49;-2.00;99.90
8043;DHT22;4064;48.132;11.366;2024-01-15T05:30:15;-2.00;99.90
8043;DHT22;4064;48.132;11.366;2024-01-15T05:32:42;-2.00;99.90
8043;DHT22;4064;48.132;11.366;2024-01-15T05:35:07;-2.00;99.90
8043;DHT22;4064;48.132;11.366;2024-01-15T05:37:33;-2.00;99.90
8043;DHT22;4064;48.132;11.366;2024-01-15T05:39:59;-2.00;99.90
8043;DHT22;4064;48.132;11.366;2024-01-15T05:42:24;-2.00;99.90
8043;DHT22;4064;48.132;11.366;2024-01-15T05:44:50;-2.10;99.90
8043;DHT22;4064;48.132;11.366;2024-01-15T05:47:16;-2.00;99.90
8043;DHT22;4064;48.132;11.366;2024-01-15T05:49:41;-2.00;99.90
8043;DHT22;4064;48.132;11.366;2024-01-15T05:52:07;-2.00;99.90
8043;DHT22;4064;48.132;11.366;2024-01-15T05:54:33;-2.00;99.90
8043;DHT22;4064;48.132;11.366;2024-01-15T05:56:58;-2.00;99.90
8043;DHT22;4064;48.132;11.366;2024-01-15T05:59:24;-2.00;99.90
8043;DHT22;4064;48.132;11.366;2024-01-15T06:01:50;-2.00;99.90
8043;DHT22;4064;48.132;11.366;2024-01-15T06:04:16;-2.00;99.90
8043;DHT22;4064;48.132;11.366;2024-01-15T06:06:42;-2.00;99.90
8043;DHT22;4064;48.132;11.366;2024-01-15T06:09:07;-2.00;99.90
8043;DHT22;4064;48.132;11.366;2024-01-15T06:11:34;-2.00;99.90
8043;DHT22;4064;48.132;11.366;2024-01-15T06:14:00;-2.00;99.90
8043;DHT22;4064;48.132;11.366;2024-01-15T06:16:30;-2.00;99.90
8043;DHT22;4064;48.132;11.366;2024-01-15T06:18:55;-2.00;99.90
8043;DHT22;4064;48.132;11.366;2024-01-15T06:21:21;-2.00;99.90
8043;DHT22;4064;48.132;11.366;2024-01-15T06:23:47;-2.00;99.90
8043;DHT22;4064;48.132;11.366;2024-01-15T06:26:12;-2.00;99.90
8043;DHT22;4064;48.132;11.366;2024-01-15T06:28:38;-2.00;99.90
8043;DHT22;4064;48.132;11.366;2024-01-15T06:31:04;-2.00;99.90
8043;DHT22;4064;48.132;11.366;2024-01-15T06:33:31;-2.00;99.90
8043;DHT22;4064;48.132;11.366;2024-01-15T06:35:57;-2.00;99.90
8043;DHT22;4064;48.132;11.366;2024-01-15T06:38:22;-2.00;99.90
8043;DHT22;4064;48.132;11.366;2024-01-15T06:40:48;-2.00;99.90
8043;DHT22;4064;48.132;11.366;2024-01-15T06:43:15;-2.00;99.90
8043;DHT22;4064;48.132;11.366;2024-01-15T06:45:44;-2.00;99.90
8043;DHT22;4064;48.132;11.366;2024-01-15T06:48:09;-2.00;99.90
8043;DHT22;4064;48.132;11.366;2024-01-15T06:50:35;-2.00;99.90
8043;DHT22;4064;48.132;11.366;2024-01-15T06:53:01;-2.00;99.90
8043;DHT22;4064;48.132;11.366;2024-01-15T06:55:26;-1.90;99.90
8043;DHT22;4064;48.132;11.366;2024-01-15T06:57:53;-1.90;99.90
8043;DHT22;4064;48.132;11.366;2024-01-15T07:00:18;-1.90;99.90
8043;DHT22;4064;48.132;11.366;2024-01-15T07:02:45;-1.80;99.90
8043;DHT22;4064;48.132;11.366;2024-01-15T07:05:11;-1.80;99.90
8043;DHT22;4064;48.132;11.366;2024-01-15T07:07:36;-1.80;99.90
8043;DHT22;4064;48.132;11.366;2024-01-15T07:10:03;-1.80;99.90
8043;DHT22;4064;48.132;11.366;2024-01-15T07:12:29;-1.80;99.90
8043;DHT22;4064;48.132;11.366;2024-01-15T07:14:56;-1.70;99.90
8043;DHT22;4064;48.132;11.366;2024-01-15T07:17:21;-1.70;99.90
8043;DHT22;4064;48.132;11.366;2024-01-15T07:19:47;-1.80;99.90
8043;DHT22;4064;48.132;11.366;2024-01-15T07:22:13;-1.70;99.90
8043;DHT22;4064;48.132;11.366;2024-01-15T07:24:38;-1.70;99.90
8043;DHT22;4064;48.132;11.366;2024-01-15T07:27:04;-1.70;99.90
8043;DHT22;4064;48.132;11.366;2024-01-15T07:29:30;-1.60;99.90
8043;DHT22;4064;48.132;11.366;2024-01-15T07:31:58;-1.60;99.90
8043;DHT22;4064;48.132;11.366;2024-01-15T07:34:24;-1.60;99.90
8043;DHT22;4064;48.132;11.366;2024-01-15T07:36:49;-1.60;99.90
8043;DHT22;4064;48.132;11.366;2024-01-15T07:39:15;-1.60;99.90
8043;DHT22;4064;48.132;11.366;2024-01-15T07:41:40;-1.50;99.90
8043;DHT22;4064;48.132;11.366;2024-01-15T07:44:06;-1.50;99.90
8043;DHT22;4064;48.132;11.366;2024-01-15T07:46:32;-1.60;99.90
8043;DHT22;4064;48.132;11.366;2024-01-15T07:48:57;-1.50;99.90
8043;DHT22;4064;48.132;11.366;2024-01-15T07:51:24;-1.50;99.90
8043;DHT22;4064;48.132;11.366;2024-01-15T07:53:50;-1.50;99.90
8043;DHT22;4064;48.132;11.366;2024-01-15T07:56:15;-1.50;99.90
8043;DHT22;4064;48.132;11.366;2024-01-15T07:58:41;-1.50;99.90
8043;DHT22;4064;48.132;11.366;2024-01-15T08:01:07;-1.40;99.90
8043;DHT22;4064;48.132;11.366;2024-01-15T08:03:33;-1.40;99.90
8043;DHT22;4064;48.132;11.366;2024-01-15T08:05:59;-1.40;99.90
8043;DHT22;4064;48.132;11.366;2024-01-15T08:08:25;-1.40;99.90
8043;DHT22;4064;48.132;11.366;2024-01-15T08:10:53;-1.40;99.90
8043;DHT22;4064;48.132;11.366;2024-01-15T08:13:19;-1.40;99.90
8043;DHT22;4064;48.132;11.366;2024-01-15T08:15:46;-1.30;99.90
8043;DHT22;4064;48.132;11.366;2024-01-15T08:18:11;-1.40;99.90
8043;DHT22;4064;48.132;11.366;2024-01-15T08:20:37;-1.30;99.90
8043;DHT22;4064;48.132;11.366;2024-01-15T08:23:03;-1.40;99.90
8043;DHT22;4064;48.132;11.366;2024-01-15T08:25:28;-1.40;99.90
8043;DHT22;4064;48.132;11.366;2024-01-15T08:27:56;-1.30;99.90
8043;DHT22;4064;48.132;11.366;2024-01-15T08:30:21;-1.40;99.90
8043;DHT22;4064;48.132;11.366;2024-01-15T08:32:50;-1.40;99.90
8043;DHT22;4064;48.132;11.366;2024-01-15T08:35:15;-1.30;99.90
8043;DHT22;4064;48.132;11.366;2024-01-15T08:37:41;-1.40;99.90
8043;DHT22;4064;48.132;11.366;2024-01-15T08:40:07;-1.30;99.90
8043;DHT22;4064;48.132;11.366;2024-01-15T08:42:32;-1.30;99.90
8043;DHT22;4064;48.132;11.366;2024-01-15T08:44:58;-1.30;99.90
8043;DHT22;4064;48.132;11.366;2024-01-15T08:47:25;-1.30;99.90
8043;DHT22;4064;48.132;11.366;2024-01-15T08:49:51;-1.30;99.90
8043;DHT22;4064;48.132;11.366;2024-01-15T08:52:16;-1.30;99.90
8043;DHT22;4064;48.132;11.366;2024-01-15T08:54:42;-1.30;99.90
8043;DHT22;4064;48.132;11.366;2024-01-15T08:57:08;-1.30;99.90
8043;DHT22;4064;48.132;11.366;2024-01-15T08:59:33;-1.20;99.90
8043;DHT22;4064;48.132;11.366;2024-01-15T09:01:59;-1.20;99.90
8043;DHT22;4064;48.132;11.366;2024-01-15T09:04:26;-1.20;99.90
8043;DHT22;4064;48.132;11.366;2024-01-15T09:06:52;-1.10;99.90
8043;DHT22;4064;48.132;11.366;2024-01-15T09:09:17;-1.10;99.90
8043;DHT22;4064;48.132;11.366;2024-01-15T09:11:44;-1.00;99.90
8043;DHT22;4064;48.132;11.366;2024-01-15T09:14:10;-1.00;99.90
8043;DHT22;4064;48.132;11.366;2024-01-15T09:16:36;-1.00;99.90
8043;DHT22;4064;48.132;11.366;2024-01-15T09:19:02;-1.00;99.90
8043;DHT22;4064;48.132;11.366;2024-01-15T09:21:28;-1.00;99.90
8043;DHT22;4064;48.132;11.366;2024-01-15T09:23:54;-0.90;99.90
8043;DHT22;4064;48.132;11.366;2024-01-15T09:26:19;-0.80;99.90
8043;DHT22;4064;48.132;11.366;2024-01-15T09:28:45;-0.80;99.90
8043;DHT22;4064;48.132;11.366;2024-01-15T09:31:11;-0.80;99.90
8043;DHT22;4064;48.132;11.366;2024-01-15T09:33:37;-0.80;99.90
8043;DHT22;4064;48.132;11.366;2024-01-15T09:36:03;-0.80;99.90
8043;DHT22;4064;48.132;11.366;2024-01-15T09:38:29;-0.70;99.90
8043;DHT22;4064;48.132;11.366;2024-01-15T09:40:56;-0.70;99.90
8043;DHT22;4064;48.132;11.366;2024-01-15T09:43:22;-0.60;99.90
8043;DHT22;4064;48.132;11.366;2024-01-15T09:45:50;-0.60;99.90
8043;DHT22;4064;48.132;11.366;2024-01-15T09:48:15;-0.60;99.90
8043;DHT22;4064;48.132;11.366;2024-01-15T09:50:42;-0.50;99.90
8043;DHT22;4064;48.132;11.366;2024-01-15T09:53:09;-0.50;99.90
8043;DHT22;4064;48.132;11.366;2024-01-15T09:55:36;-0.50;99.90
8043;DHT22;4064;48.132;11.366;2024-01-15T09:58:03;-0.40;99.90
8043;DHT22;4064;48.132;11.366;2024-01-15T10:00:29;-0.40;99.90
8043;DHT22;4064;48.132;11.366;2024-01-15T10:02:58;-0.40;99.90
8043;DHT22;4064;48.132;11.366;2024-01-15T10:05:27;-0.40;99.90
8043;DHT22;4064;48.132;11.366;2024-01-15T10:07:54;-0.40;99.90
8043;DHT22;4064;48.132;11.366;2024-01-15T10:10:21;-0.50;99.90
8043;DHT22;4064;48.132;11.366;2024-01-15T10:12:48;-0.40;99.90
8043;DHT22;4064;48.132;11.366;2024-01-15T10:15:14;-0.40;99.90
8043;DHT22;4064;48.132;11.366;2024-01-15T10:17:40;-0.30;99.90
8043;DHT22;4064;48.132;11.366;2024-01-15T10:20:12;-0.30;99.90
8043;DHT22;4064;48.132;11.366;2024-01-15T10:22:41;-0.30;99.90
8043;DHT22;4064;48.132;11.366;2024-01-15T10:25:10;-0.30;99.90
8043;DHT22;4064;48.132;11.366;2024-01-15T10:27:36;-0.30;99.90
8043;DHT22;4064;48.132;11.366;2024-01-15T10:30:02;-0.20;99.90
8043;DHT22;4064;48.132;11.366;2024-01-15T10:32:28;-0.20;99.90
8043;DHT22;4064;48.132;11.366;2024-01-15T10:34:54;-0.20;99.90
8043;DHT22;4064;48.132;11.366;2024-01-15T10:37:20;-0.10;99.90
8043;DHT22;4064;48.132;11.366;2024-01-15T10:39:49;0.00;99.90
8043;DHT22;4064;48.132;11.366;2024-01-15T10:42:15;0.00;99.90
8043;DHT22;4064;48.132;11.366;2024-01-15T10:44:41;0.10;99.90
8043;DHT22;4064;48.132;11.366;2024-01-15T10:47:08;0.10;99.90
8043;DHT22;4064;48.132;11.366;2024-01-15T10:49:34;0.10;99.90
8043;DHT22;4064;48.132;11.366;2024-01-15T10:52:04;0.20;99.90
8043;DHT22;4064;48.132;11.366;2024-01-15T10:54:29;0.20;99.90
8043;DHT22;4064;48.132;11.366;2024-01-15T10:56:58;0.30;99.90
8043;DHT22;4064;48.132;11.366;2024-01-15T10:59:24;0.40;99.90
8043;DHT22;4064;48.132;11.366;2024-01-15T11:01:51;0.50;99.90
8043;DHT22;4064;48.132;11.366;2024-01-15T11:04:22;0.60;99.90
8043;DHT22;4064;48.132;11.366;2024-01-15T11:06:53;0.60;99.90
8043;DHT22;4064;48.132;11.366;2024-01-15T11:09:19;0.70;99.90
8043;DHT22;4064;48.132;11.366;2024-01-15T11:11:46;0.70;99.90
8043;DHT22;4064;48.132;11.366;2024-01-15T11:14:34;0.70;99.90
8043;DHT22;4064;48.132;11.366;2024-01-15T11:17:00;0.60;99.90
8043;DHT22;4064;48.132;11.366;2024-01-15T11:19:25;0.80;99.90
8043;DHT22;4064;48.132;11.366;2024-01-15T11:21:51;0.80;99.90
8043;DHT22;4064;48.132;11.366;2024-01-15T11:24:35;0.60;99.90
8043;DHT22;4064;48.132;11.366;2024-01-15T11:27:03;0.50;99.90
8043;DHT22;4064;48.132;11.366;2024-01-15T11:31:59;0.30;99.90
8043;DHT22;4064;48.132;11.366;2024-01-15T11:34:52;0.30;99.90
8043;DHT22;4064;48.132;11.366;2024-01-15T11:37:21;0.20;99.90
8043;DHT22;4064;48.132;11.366;2024-01-15T11:39:51;0.30;99.90
8043;DHT22;4064;48.132;11.366;2024-01-15T11:42:17;0.70;99.90
8043;DHT22;4064;48.132;11.366;2024-01-15T11:44:44;1.10;99.90
8043;DHT22;4064;48.132;11.366;2024-01-15T11:47:11;1.30;99.90
8043;DHT22;4064;48.132;11.366;2024-01-15T11:49:58;1.40;99.90
8043;DHT22;4064;48.132;11.366;2024-01-15T11:52:25;1.70;99.90
8043;DHT22;4064;48.132;11.366;2024-01-15T11:57:51;1.60;99.90
8043;DHT22;4064;48.132;11.366;2024-01-15T12:00:19;1.70;99.90
8043;DHT22;4064;48.132;11.366;2024-01-15T12:02:47;1.50;99.90
8043;DHT22;4064;48.132;11.366;2024-01-15T12:05:14;1.90;99.90
8043;DHT22;4064;48.132;11.366;2024-01-15T12:07:43;1.60;99.90
8043;DHT22;4064;48.132;11.366;2024-01-15T12:10:16;1.70;99.90
8043;DHT22;4064;48.132;11.366;2024-01-15T12:15:28;2.20;99.90
8043;DHT22;4064;48.132;11.366;2024-01-15T12:17:56;2.40;99.90
8043;DHT22;4064;48.132;11.366;2024-01-15T12:20:34;2.90;99.90
8043;DHT22;4064;48.132;11.366;2024-01-15T12:23:01;3.00;99.90
8043;DHT22;4064;48.132;11.366;2024-01-15T12:25:29;2.90;99.90
8043;DHT22;4064;48.132;11.366;2024-01-15T12:27:56;2.40;99.90
8043;DHT22;4064;48.132;11.366;2024-01-15T12:30:22;2.60;99.90
8043;DHT22;4064;48.132;11.366;2024-01-15T12:32:48;2.30;99.90
8043;DHT22;4064;48.132;11.366;2024-01-15T12:35:14;2.70;99.90
8043;DHT22;4064;48.132;11.366;2024-01-15T12:37:42;2.90;99.90
8043;DHT22;4064;48.132;11.366;2024-01-15T12:40:09;2.60;99.90
8043;DHT22;4064;48.132;11.366;2024-01-15T12:42:42;2.70;99.90
8043;DHT22;4064;48.132;11.366;2024-01-15T12:45:11;2.80;99.90
8043;DHT22;4064;48.132;11.366;2024-01-15T12:47:39;2.90;99.90
8043;DHT22;4064;48.132;11.366;2024-01-15T12:50:12;3.00;99.90
8043;DHT22;4064;48.132;11.366;2024-01-15T12:52:41;3.30;99.90
8043;DHT22;4064;48.132;11.366;2024-01-15T12:55:09;3.50;99.90
8043;DHT22;4064;48.132;11.366;2024-01-15T12:57:35;3.40;99.90
8043;DHT22;4064;48.132;11.366;2024-01-15T13:00:02;3.30;99.90
8043;DHT22;4064;48.132;11.366;2024-01-15T13:02:32;3.40;99.90
8043;DHT22;4064;48.132;11.366;2024-01-15T13:04:59;3.40;99.90
8043;DHT22;4064;48.132;11.366;2024-01-15T13:07:25;3.00;99.90
8043;DHT22;4064;48.132;11.366;2024-01-15T13:09:51;2.90;99.90
8043;DHT22;4064;48.132;11.366;2024-01-15T13:12:20;2.60;99.90
8043;DHT22;4064;48.132;11.366;2024-01-15T13:14:49;2.30;99.90
8043;DHT22;4064;48.132;11.366;2024-01-15T13:17:16;2.10;99.90
8043;DHT22;4064;48.132;11.366;2024-01-15T13:19:41;2.30;99.90
8043;DHT22;4064;48.132;11.366;2024-01-15T13:22:07;2.10;99.90
8043;DHT22;4064;48.132;11.366;2024-01-15T13:24:35;2.00;99.90
8043;DHT22;4064;48.132;11.366;2024-01-15T13:27:02;1.80;99.90
8043;DHT22;4064;48.132;11.366;2024-01-15T13:29:29;1.70;99.90
8043;DHT22;4064;48.132;11.366;2024-01-15T13:31:55;1.60;99.90
8043;DHT22;4064;48.132;11.366;2024-01-15T13:34:21;1.40;99.90
8043;DHT22;4064;48.132;11.366;2024-01-15T13:36:47;1.30;99.90
8043;DHT22;4064;48.132;11.366;2024-01-15T13:39:13;1.30;99.90
8043;DHT22;4064;48.132;11.366;2024-01-15T13:41:39;1.30;99.90
8043;DHT22;4064;48.132;11.366;2024-01-15T13:44:05;1.30;99.90
8043;DHT22;4064;48.132;11.366;2024-01-15T13:46:31;1.40;99.90
8043;DHT22;4064;48.132;11.366;2024-01-15T13:49:00;1.30;99.90
8043;DHT22;4064;48.132;11.366;2024-01-15T13:51:25;1.30;99.90
8043;DHT22;4064;48.132;11.366;2024-01-15T13:53:54;1.30;99.90
8043;DHT22;4064;48.132;11.366;2024-01-15T13:56:21;1.20;99.90
8043;DHT22;4064;48.132;11.366;2024-01-15T13:58:48;1.20;99.90
8043;DHT22;4064;48.132;11.366;2024-01-15T14:01:17;1.10;99.90
8043;DHT22;4064;48.132;11.366;2024-01-15T14:03:43;1.00;99.90
8043;DHT22;4064;48.132;11.366;2024-01-15T14:06:09;0.90;99.90
8043;DHT22;4064;48.132;11.366;2024-01-15T14:08:36;1.00;99.90
8043;DHT22;4064;48.132;11.366;2024-01-15T14:11:08;0.90;99.90
8043;DHT22;4064;48.132;11.366;2024-01-15T14:13:35;0.90;99.90
8043;DHT22;4064;48.132;11.366;2024-01-15T14:16:01;0.80;99.90
8043;DHT22;4064;48.132;11.366;2024-01-15T14:18:27;0.80;99.90
8043;DHT22;4064;48.132;11.366;2024-01-15T14:20:53;0.60;99.90
8043;DHT22;4064;48.132;11.366;2024-01-15T14:23:20;0.60;99.90
8043;DHT22;4064;48.132;11.366;2024-01-15T14:25:46;0.60;99.90
8043;DHT22;4064;48.132;11.366;2024-01-15T14:28:12;0.50;99.90
8043;DHT22;4064;48.132;11.366;2024-01-15T14:30:38;0.50;99.90
8043;DHT22;4064;48.132;11.366;2024-01-15T14:33:04;0.40;99.90
8043;DHT22;4064;48.132;11.366;2024-01-15T14:35:30;0.40;99.90
8043;DHT22;4064;48.132;11.366;2024-01-15T14:37:55;0.30;99.90
8043;DHT22;4064;48.132;11.366;2024-01-15T14:40:25;0.30;99.90
8043;DHT22;4064;48.132;11.366;2024-01-15T14:42:52;0.30;99.90
8043;DHT22;4064;48.132;11.366;2024-01-15T14:45:18;0.30;99.90
8043;DHT22;4064;48.132;11.366;2024-01-15T14:47:44;0.30;99.90
8043;DHT22;4064;48.132;11.366;2024-01-15T14:50:10;0.20;99.90
8043;DHT22;4064;48.132;11.366;2024-01-15T14:52:36;0.20;99.90
8043;DHT22;4064;48.132;11.366;2024-01-15T14:55:02;0.20;99.90
8043;DHT22;4064;48.132;11.366;2024-01-15T14:57:28;0.20;99.90
8043;DHT22;4064;48.132;11.366;2024-01-15T14:59:54;0.20;99.90
8043;DHT22;4064;48.132;11.366;2024-01-15T15:02:20;0.30;99.90
8043;DHT22;4064;48.132;11.366;2024-01-15T15:04:46;0.20;99.90
8043;DHT22;4064;48.132;11.366;2024-01-15T15:07:12;0.30;99.90
8043;DHT22;4064;48.132;11.366;2024-01-15T15:09:38;0.20;99.90
8043;DHT22;4064;48.132;11.366;2024-01-15T15:12:05;0.20;99.90
8043;DHT22;4064;48.132;11.366;2024-01-15T15:14:31;0.20;99.90
8043;DHT22;4064;48.132;11.366;2024-01-15T15:17:06;0.10;99.90
8043;DHT22;4064;48.132;11.366;2024-01-15T15:19:32;0.10;99.90
8043;DHT22;4064;48.132;11.366;2024-01-15T15:21:58;0.10;99.90
8043;DHT22;4064;48.132;11.366;2024-01-15T15:24:25;0.10;99.90
8043;DHT22;4064;48.132;11.366;2024-01-15T15:26:51;0.10;99.90
8043;DHT22;4064;48.132;11.366;2024-01-15T15:29:17;0.00;99.90
8043;DHT22;4064;48.132;11.366;2024-01-15T15:31:43;0.10;99.90
8043;DHT22;4064;48.132;11.366;2024-01-15T15:34:09;0.10;99.90
8043;DHT22;4064;48.132;11.366;2024-01-15T15:36:35;0.10;99.90
8043;DHT22;4064;48.132;11.366;2024-01-15T15:39:02;0.10;99.90
8043;DHT22;4064;48.132;11.366;2024-01-15T15:41:28;0.00;99.90
8043;DHT22;4064;48.132;11.366;2024-01-15T15:43:55;0.00;99.90
8043;DHT22;4064;48.132;11.366;2024-01-15T15:46:21;0.10;99.90
8043;DHT22;4064;48.132;11.366;2024-01-15T15:48:47;0.00;99.90
8043;DHT22;4064;48.132;11.366;2024-01-15T15:51:13;0.00;99.90
8043;DHT22;4064;48.132;11.366;2024-01-15T15:53:39;0.00;99.90
8043;DHT22;4064;48.132;11.366;2024-01-15T15:56:05;0.00;99.90
8043;DHT22;4064;48.132;11.366;2024-01-15T15:58:32;0.00;99.90
8043;DHT22;4064;48.132;11.366;2024-01-15T16:00:58;0.00;99.90